sensor_id;sensor_type;location;lat;lon;timestamp;P1;durP1;ratioP1;P2;durP2;ratioP2
9117;SDS011;4594;50.994;7.126;2023-10-08T00:00:47;4.20;;;3.10;;
9117;SDS011;4594;50.994;7.126;2023-10-08T00:03:21;4.63;;;3.30;;
9117;SDS011;4594;50.994;7.126;2023-10-08T00:05:47;5.77;;;3.37;;
9117;SDS011;4594;50.994;7.126;2023-10-08T00:08:14;5.37;;;3.83;;
9117;SDS011;4594;50.994;7.126;2023-10-08T00:10:42;3.73;;;3.37;;
9117;SDS011;4594;50.994;7.126;2023-10-08T00:13:12;4.90;;;3.00;;
9117;SDS011;4594;50.994;7.126;2023-10-08T00:15:43;4.37;;;3.67;;
9117;SDS011;4594;50.994;7.126;2023-10-08T00:18:17;6.50;;;3.97;;
9117;SDS011;4594;50.994;7.126;2023-10-08T00:20:47;3.30;;;3.00;;
9117;SDS011;4594;50.994;7.126;2023-10-08T00:23:30;7.27;;;3.07;;
9117;SDS011;4594;50.994;7.126;2023-10-08T00:25:56;4.47;;;3.23;;
9117;SDS011;4594;50.994;7.126;2023-10-08T00:28:23;5.50;;;3.27;;
9117;SDS011;4594;50.994;7.126;2023-10-08T00:30:49;8.47;;;3.40;;
9117;SDS011;4594;50.994;7.126;2023-10-08T00:33:18;5.33;;;3.10;;
9117;SDS011;4594;50.994;7.126;2023-10-08T00:35:44;6.50;;;3.57;;
9117;SDS011;4594;50.994;7.126;2023-10-08T00:38:10;3.77;;;3.43;;
9117;SDS011;4594;50.994;7.126;2023-10-08T00:40:41;6.03;;;3.10;;
9117;SDS011;4594;50.994;7.126;2023-10-08T00:43:56;6.37;;;3.30;;
9117;SDS011;4594;50.994;7.126;2023-10-08T00:46:01;3.90;;;3.53;;
9117;SDS011;4594;50.994;7.126;2023-10-08T00:48:42;3.67;;;3.00;;
9117;SDS011;4594;50.994;7.126;2023-10-08T00:51:09;4.67;;;3.47;;
9117;SDS011;4594;50.994;7.126;2023-10-08T00:54:05;3.73;;;3.10;;
9117;SDS011;4594;50.994;7.126;2023-10-08T00:56:35;5.73;;;3.33;;
9117;SDS011;4594;50.994;7.126;2023-10-08T00:59:20;4.13;;;3.27;;
9117;SDS011;4594;50.994;7.126;2023-10-08T01:01:47;8.67;;;3.13;;
9117;SDS011;4594;50.994;7.126;2023-10-08T01:04:24;4.13;;;3.17;;
9117;SDS011;4594;50.994;7.126;2023-10-08T01:06:55;8.40;;;3.70;;
9117;SDS011;4594;50.994;7.126;2023-10-08T01:09:38;7.00;;;2.93;;
9117;SDS011;4594;50.994;7.126;2023-10-08T01:12:12;4.67;;;3.50;;
9117;SDS011;4594;50.994;7.126;2023-10-08T01:14:43;3.97;;;3.40;;
9117;SDS011;4594;50.994;7.126;2023-10-08T01:17:09;5.37;;;3.03;;
9117;SDS011;4594;50.994;7.126;2023-10-08T01:19:40;5.50;;;3.70;;
9117;SDS011;4594;50.994;7.126;2023-10-08T01:22:15;3.27;;;2.90;;
9117;SDS011;4594;50.994;7.126;2023-10-08T01:24:47;3.97;;;3.03;;
9117;SDS011;4594;50.994;7.126;2023-10-08T01:27:22;3.87;;;3.23;;
9117;SDS011;4594;50.994;7.126;2023-10-08T01:29:50;3.77;;;3.20;;
9117;SDS011;4594;50.994;7.126;2023-10-08T01:32:17;4.63;;;3.80;;
9117;SDS011;4594;50.994;7.126;2023-10-08T01:34:45;8.63;;;3.43;;
9117;SDS011;4594;50.994;7.126;2023-10-08T01:37:18;4.70;;;3.37;;
9117;SDS011;4594;50.994;7.126;2023-10-08T01:39:44;4.33;;;3.30;;
9117;SDS011;4594;50.994;7.126;2023-10-08T01:42:11;8.10;;;3.47;;
9117;SDS011;4594;50.994;7.126;2023-10-08T01:44:58;3.47;;;3.17;;
9117;SDS011;4594;50.994;7.126;2023-10-08T01:47:24;3.70;;;3.33;;
9117;SDS011;4594;50.994;7.126;2023-10-08T01:49:50;7.10;;;3.73;;
9117;SDS011;4594;50.994;7.126;2023-10-08T01:52:23;5.30;;;3.60;;
9117;SDS011;4594;50.994;7.126;2023-10-08T01:54:49;4.50;;;3.50;;
9117;SDS011;4594;50.994;7.126;2023-10-08T01:57:18;3.87;;;3.10;;
9117;SDS011;4594;50.994;7.126;2023-10-08T01:59:44;3.60;;;3.30;;
9117;SDS011;4594;50.994;7.126;2023-10-08T02:02:10;5.17;;;3.40;;
9117;SDS011;4594;50.994;7.126;2023-10-08T02:04:37;6.50;;;3.37;;
9117;SDS011;4594;50.994;7.126;2023-10-08T02:07:03;4.00;;;3.10;;
9117;SDS011;4594;50.994;7.126;2023-10-08T02:09:32;4.63;;;3.50;;
9117;SDS011;4594;50.994;7.126;2023-10-08T02:11:59;5.10;;;3.33;;
9117;SDS011;4594;50.994;7.126;2023-10-08T02:14:25;3.97;;;3.57;;
9117;SDS011;4594;50.994;7.126;2023-10-08T02:16:55;3.60;;;3.30;;
9117;SDS011;4594;50.994;7.126;2023-10-08T02:19:21;5.23;;;3.30;;
9117;SDS011;4594;50.994;7.126;2023-10-08T02:21:54;4.33;;;3.50;;
9117;SDS011;4594;50.994;7.126;2023-10-08T02:24:22;3.57;;;3.10;;
9117;SDS011;4594;50.994;7.126;2023-10-08T02:26:53;4.27;;;3.47;;
9117;SDS011;4594;50.994;7.126;2023-10-08T02:29:20;7.03;;;3.90;;
9117;SDS011;4594;50.994;7.126;2023-10-08T02:31:50;4.40;;;3.23;;
9117;SDS011;4594;50.994;7.126;2023-10-08T02:34:16;3.43;;;3.13;;
9117;SDS011;4594;50.994;7.126;2023-10-08T02:36:41;8.27;;;3.60;;
9117;SDS011;4594;50.994;7.126;2023-10-08T02:39:07;6.87;;;3.87;;
9117;SDS011;4594;50.994;7.126;2023-10-08T02:41:46;5.33;;;3.60;;
9117;SDS011;4594;50.994;7.126;2023-10-08T02:44:13;16.00;;;3.73;;
9117;SDS011;4594;50.994;7.126;2023-10-08T02:46:45;3.47;;;3.17;;
9117;SDS011;4594;50.994;7.126;2023-10-08T02:49:15;6.73;;;3.60;;
9117;SDS011;4594;50.994;7.126;2023-10-08T02:51:50;5.60;;;3.70;;
9117;SDS011;4594;50.994;7.126;2023-10-08T02:54:19;5.17;;;3.23;;
9117;SDS011;4594;50.994;7.126;2023-10-08T02:56:52;5.23;;;3.30;;
9117;SDS011;4594;50.994;7.126;2023-10-08T02:59:22;3.80;;;3.43;;
9117;SDS011;4594;50.994;7.126;2023-10-08T03:01:48;4.67;;;3.37;;
9117;SDS011;4594;50.994;7.126;2023-10-08T03:04:15;6.27;;;3.53;;
9117;SDS011;4594;50.994;7.126;2023-10-08T03:06:47;3.77;;;3.40;;
9117;SDS011;4594;50.994;7.126;2023-10-08T03:09:15;7.80;;;3.43;;
9117;SDS011;4594;50.994;7.126;2023-10-08T03:11:46;4.40;;;3.30;;
9117;SDS011;4594;50.994;7.126;2023-10-08T03:14:13;7.23;;;3.83;;
9117;SDS011;4594;50.994;7.126;2023-10-08T03:16:47;3.43;;;3.13;;
9117;SDS011;4594;50.994;7.126;2023-10-08T03:19:18;3.57;;;3.27;;
9117;SDS011;4594;50.994;7.126;2023-10-08T03:21:46;5.83;;;3.20;;
9117;SDS011;4594;50.994;7.126;2023-10-08T03:24:17;3.77;;;3.27;;
9117;SDS011;4594;50.994;7.126;2023-10-08T03:27:02;4.93;;;3.40;;
9117;SDS011;4594;50.994;7.126;2023-10-08T03:29:35;6.77;;;2.83;;
9117;SDS011;4594;50.994;7.126;2023-10-08T03:32:08;4.93;;;3.50;;
9117;SDS011;4594;50.994;7.126;2023-10-08T03:34:39;7.83;;;3.97;;
9117;SDS011;4594;50.994;7.126;2023-10-08T03:37:11;5.97;;;3.60;;
9117;SDS011;4594;50.994;7.126;2023-10-08T03:39:44;4.97;;;3.07;;
9117;SDS011;4594;50.994;7.126;2023-10-08T03:42:23;5.10;;;3.60;;
9117;SDS011;4594;50.994;7.126;2023-10-08T03:44:50;3.47;;;3.00;;
9117;SDS011;4594;50.994;7.126;2023-10-08T03:47:20;8.00;;;3.83;;
9117;SDS011;4594;50.994;7.126;2023-10-08T03:49:51;4.03;;;3.13;;
9117;SDS011;4594;50.994;7.126;2023-10-08T03:52:19;5.40;;;3.57;;
9117;SDS011;4594;50.994;7.126;2023-10-08T03:54:51;4.00;;;3.23;;
9117;SDS011;4594;50.994;7.126;2023-10-08T03:57:39;5.37;;;3.10;;
9117;SDS011;4594;50.994;7.126;2023-10-08T04:00:10;6.53;;;3.33;;
9117;SDS011;4594;50.994;7.126;2023-10-08T04:02:46;4.27;;;2.90;;
9117;SDS011;4594;50.994;7.126;2023-10-08T04:05:20;6.47;;;3.27;;
9117;SDS011;4594;50.994;7.126;2023-10-08T04:08:05;6.23;;;3.50;;
9117;SDS011;4594;50.994;7.126;2023-10-08T04:10:42;4.57;;;3.57;;
9117;SDS011;4594;50.994;7.126;2023-10-08T04:13:09;4.00;;;3.60;;
9117;SDS011;4594;50.994;7.126;2023-10-08T04:15:35;5.07;;;3.93;;
9117;SDS011;4594;50.994;7.126;2023-10-08T04:18:05;5.87;;;4.07;;
9117;SDS011;4594;50.994;7.126;2023-10-08T04:20:35;4.33;;;3.47;;
9117;SDS011;4594;50.994;7.126;2023-10-08T04:23:24;5.77;;;3.83;;
9117;SDS011;4594;50.994;7.126;2023-10-08T04:25:49;6.93;;;3.60;;
9117;SDS011;4594;50.994;7.126;2023-10-08T04:28:19;3.97;;;3.57;;
9117;SDS011;4594;50.994;7.126;2023-10-08T04:30:47;4.60;;;3.73;;
9117;SDS011;4594;50.994;7.126;2023-10-08T04:33:13;3.70;;;3.40;;
9117;SDS011;4594;50.994;7.126;2023-10-08T04:35:43;4.77;;;3.40;;
9117;SDS011;4594;50.994;7.126;2023-10-08T04:38:13;3.87;;;2.90;;
9117;SDS011;4594;50.994;7.126;2023-10-08T04:40:43;8.43;;;3.63;;
9117;SDS011;4594;50.994;7.126;2023-10-08T04:43:19;4.47;;;3.27;;
9117;SDS011;4594;50.994;7.126;2023-10-08T04:45:53;12.60;;;3.80;;
9117;SDS011;4594;50.994;7.126;2023-10-08T04:48:46;6.67;;;3.80;;
9117;SDS011;4594;50.994;7.126;2023-10-08T04:51:12;7.63;;;3.77;;
9117;SDS011;4594;50.994;7.126;2023-10-08T04:53:38;4.47;;;3.60;;
9117;SDS011;4594;50.994;7.126;2023-10-08T04:56:09;4.10;;;3.50;;
9117;SDS011;4594;50.994;7.126;2023-10-08T04:58:47;5.30;;;3.40;;
9117;SDS011;4594;50.994;7.126;2023-10-08T05:01:16;4.23;;;3.53;;
9117;SDS011;4594;50.994;7.126;2023-10-08T05:03:45;5.50;;;3.70;;
9117;SDS011;4594;50.994;7.126;2023-10-08T05:06:39;5.63;;;3.40;;
9117;SDS011;4594;50.994;7.126;2023-10-08T05:09:15;4.53;;;3.30;;
9117;SDS011;4594;50.994;7.126;2023-10-08T05:11:44;4.03;;;3.57;;
9117;SDS011;4594;50.994;7.126;2023-10-08T05:14:20;7.07;;;3.40;;
9117;SDS011;4594;50.994;7.126;2023-10-08T05:17:00;13.50;;;3.50;;
9117;SDS011;4594;50.994;7.126;2023-10-08T05:19:34;4.07;;;3.30;;
9117;SDS011;4594;50.994;7.126;2023-10-08T05:22:04;5.23;;;3.60;;
9117;SDS011;4594;50.994;7.126;2023-10-08T05:24:49;7.73;;;3.93;;
9117;SDS011;4594;50.994;7.126;2023-10-08T05:27:53;5.10;;;3.40;;
9117;SDS011;4594;50.994;7.126;2023-10-08T05:30:28;5.17;;;4.00;;
9117;SDS011;4594;50.994;7.126;2023-10-08T05:33:07;6.17;;;3.63;;
9117;SDS011;4594;50.994;7.126;2023-10-08T05:35:39;4.47;;;3.57;;
9117;SDS011;4594;50.994;7.126;2023-10-08T05:38:07;6.97;;;3.33;;
9117;SDS011;4594;50.994;7.126;2023-10-08T05:40:42;7.07;;;3.40;;
9117;SDS011;4594;50.994;7.126;2023-10-08T05:43:24;5.57;;;3.57;;
9117;SDS011;4594;50.994;7.126;2023-10-08T05:46:04;3.90;;;3.30;;
9117;SDS011;4594;50.994;7.126;2023-10-08T05:51:31;3.67;;;3.03;;
9117;SDS011;4594;50.994;7.126;2023-10-08T05:54:11;7.30;;;3.43;;
9117;SDS011;4594;50.994;7.126;2023-10-08T05:56:58;8.30;;;3.23;;
9117;SDS011;4594;50.994;7.126;2023-10-08T06:02:21;4.90;;;3.33;;
9117;SDS011;4594;50.994;7.126;2023-10-08T06:05:13;6.03;;;3.60;;
9117;SDS011;4594;50.994;7.126;2023-10-08T06:07:39;4.93;;;3.60;;
9117;SDS011;4594;50.994;7.126;2023-10-08T06:10:18;4.77;;;4.17;;
9117;SDS011;4594;50.994;7.126;2023-10-08T06:13:00;4.47;;;3.37;;
9117;SDS011;4594;50.994;7.126;2023-10-08T06:15:56;4.33;;;3.33;;
9117;SDS011;4594;50.994;7.126;2023-10-08T06:18:23;4.00;;;3.00;;
9117;SDS011;4594;50.994;7.126;2023-10-08T06:20:52;7.57;;;3.80;;
9117;SDS011;4594;50.994;7.126;2023-10-08T06:23:23;23.93;;;6.70;;
9117;SDS011;4594;50.994;7.126;2023-10-08T06:25:53;6.83;;;3.70;;
9117;SDS011;4594;50.994;7.126;2023-10-08T06:28:23;3.33;;;3.13;;
9117;SDS011;4594;50.994;7.126;2023-10-08T06:30:54;5.30;;;3.53;;
9117;SDS011;4594;50.994;7.126;2023-10-08T06:33:22;5.07;;;3.60;;
9117;SDS011;4594;50.994;7.126;2023-10-08T06:35:51;6.50;;;3.23;;
9117;SDS011;4594;50.994;7.126;2023-10-08T06:38:35;6.40;;;3.23;;
9117;SDS011;4594;50.994;7.126;2023-10-08T06:41:03;4.60;;;3.30;;
9117;SDS011;4594;50.994;7.126;2023-10-08T06:43:53;3.87;;;3.47;;
9117;SDS011;4594;50.994;7.126;2023-10-08T06:46:28;3.53;;;3.13;;
9117;SDS011;4594;50.994;7.126;2023-10-08T06:48:58;6.03;;;3.07;;
9117;SDS011;4594;50.994;7.126;2023-10-08T06:51:24;7.43;;;3.43;;
9117;SDS011;4594;50.994;7.126;2023-10-08T06:53:51;4.57;;;3.47;;
9117;SDS011;4594;50.994;7.126;2023-10-08T06:56:19;4.23;;;3.47;;
9117;SDS011;4594;50.994;7.126;2023-10-08T06:58:45;7.27;;;3.40;;
9117;SDS011;4594;50.994;7.126;2023-10-08T07:01:18;5.30;;;3.80;;
9117;SDS011;4594;50.994;7.126;2023-10-08T07:03:47;4.47;;;3.50;;
9117;SDS011;4594;50.994;7.126;2023-10-08T07:06:17;5.80;;;3.90;;
9117;SDS011;4594;50.994;7.126;2023-10-08T07:08:56;5.63;;;3.93;;
9117;SDS011;4594;50.994;7.126;2023-10-08T07:11:25;3.97;;;3.47;;
9117;SDS011;4594;50.994;7.126;2023-10-08T07:13:52;7.47;;;3.63;;
9117;SDS011;4594;50.994;7.126;2023-10-08T07:16:18;5.53;;;3.80;;
9117;SDS011;4594;50.994;7.126;2023-10-08T07:18:46;4.40;;;3.57;;
9117;SDS011;4594;50.994;7.126;2023-10-08T07:21:18;5.27;;;3.87;;
9117;SDS011;4594;50.994;7.126;2023-10-08T07:23:54;5.30;;;3.47;;
9117;SDS011;4594;50.994;7.126;2023-10-08T07:26:22;5.20;;;3.50;;
9117;SDS011;4594;50.994;7.126;2023-10-08T07:28:49;8.93;;;4.20;;
9117;SDS011;4594;50.994;7.126;2023-10-08T07:31:23;7.47;;;4.00;;
9117;SDS011;4594;50.994;7.126;2023-10-08T07:33:50;8.10;;;3.57;;
9117;SDS011;4594;50.994;7.126;2023-10-08T07:36:21;5.57;;;3.77;;
9117;SDS011;4594;50.994;7.126;2023-10-08T07:38:48;6.27;;;3.50;;
9117;SDS011;4594;50.994;7.126;2023-10-08T07:41:16;3.67;;;3.23;;
9117;SDS011;4594;50.994;7.126;2023-10-08T07:43:44;6.37;;;3.43;;
9117;SDS011;4594;50.994;7.126;2023-10-08T07:46:20;8.73;;;3.50;;
9117;SDS011;4594;50.994;7.126;2023-10-08T07:48:47;4.17;;;3.40;;
9117;SDS011;4594;50.994;7.126;2023-10-08T07:51:16;5.00;;;3.70;;
9117;SDS011;4594;50.994;7.126;2023-10-08T07:53:47;6.80;;;3.63;;
9117;SDS011;4594;50.994;7.126;2023-10-08T07:56:13;6.30;;;3.87;;
9117;SDS011;4594;50.994;7.126;2023-10-08T07:58:39;6.40;;;3.80;;
9117;SDS011;4594;50.994;7.126;2023-10-08T08:01:06;5.90;;;3.67;;
9117;SDS011;4594;50.994;7.126;2023-10-08T08:03:34;4.73;;;3.60;;
9117;SDS011;4594;50.994;7.126;2023-10-08T08:06:06;7.27;;;3.57;;
9117;SDS011;4594;50.994;7.126;2023-10-08T08:08:38;7.07;;;4.40;;
9117;SDS011;4594;50.994;7.126;2023-10-08T08:11:05;6.40;;;3.43;;
9117;SDS011;4594;50.994;7.126;2023-10-08T08:13:35;8.67;;;3.93;;
9117;SDS011;4594;50.994;7.126;2023-10-08T08:16:01;5.30;;;3.70;;
9117;SDS011;4594;50.994;7.126;2023-10-08T08:18:41;8.13;;;4.20;;
9117;SDS011;4594;50.994;7.126;2023-10-08T08:21:11;10.17;;;3.90;;
9117;SDS011;4594;50.994;7.126;2023-10-08T08:23:42;3.90;;;3.30;;
9117;SDS011;4594;50.994;7.126;2023-10-08T08:26:15;8.40;;;3.80;;
9117;SDS011;4594;50.994;7.126;2023-10-08T08:28:55;6.67;;;3.70;;
9117;SDS011;4594;50.994;7.126;2023-10-08T08:31:24;4.50;;;3.23;;
9117;SDS011;4594;50.994;7.126;2023-10-08T08:33:52;5.60;;;3.50;;
9117;SDS011;4594;50.994;7.126;2023-10-08T08:36:21;12.87;;;3.60;;
9117;SDS011;4594;50.994;7.126;2023-10-08T08:38:49;5.60;;;3.63;;
9117;SDS011;4594;50.994;7.126;2023-10-08T08:41:15;6.23;;;3.90;;
9117;SDS011;4594;50.994;7.126;2023-10-08T08:43:43;6.03;;;4.00;;
9117;SDS011;4594;50.994;7.126;2023-10-08T08:46:13;6.37;;;4.00;;
9117;SDS011;4594;50.994;7.126;2023-10-08T08:48:40;7.57;;;4.10;;
9117;SDS011;4594;50.994;7.126;2023-10-08T08:51:09;7.50;;;3.60;;
9117;SDS011;4594;50.994;7.126;2023-10-08T08:53:36;4.33;;;3.00;;
9117;SDS011;4594;50.994;7.126;2023-10-08T08:56:02;5.07;;;3.77;;
9117;SDS011;4594;50.994;7.126;2023-10-08T08:58:34;4.83;;;3.83;;
9117;SDS011;4594;50.994;7.126;2023-10-08T09:01:03;5.27;;;3.43;;
9117;SDS011;4594;50.994;7.126;2023-10-08T09:03:34;5.63;;;3.33;;
9117;SDS011;4594;50.994;7.126;2023-10-08T09:06:02;7.10;;;3.77;;
9117;SDS011;4594;50.994;7.126;2023-10-08T09:08:32;8.23;;;3.67;;
9117;SDS011;4594;50.994;7.126;2023-10-08T09:11:03;13.63;;;4.60;;
9117;SDS011;4594;50.994;7.126;2023-10-08T09:13:33;10.83;;;6.40;;
9117;SDS011;4594;50.994;7.126;2023-10-08T09:16:07;10.27;;;5.70;;
9117;SDS011;4594;50.994;7.126;2023-10-08T09:18:38;11.97;;;5.13;;
9117;SDS011;4594;50.994;7.126;2023-10-08T09:21:07;10.73;;;4.57;;
9117;SDS011;4594;50.994;7.126;2023-10-08T09:23:36;10.07;;;4.67;;
9117;SDS011;4594;50.994;7.126;2023-10-08T09:26:09;10.53;;;4.30;;
9117;SDS011;4594;50.994;7.126;2023-10-08T09:28:36;12.20;;;3.87;;
9117;SDS011;4594;50.994;7.126;2023-10-08T09:31:04;10.43;;;4.33;;
9117;SDS011;4594;50.994;7.126;2023-10-08T09:33:31;10.70;;;4.40;;
9117;SDS011;4594;50.994;7.126;2023-10-08T09:35:58;9.03;;;4.17;;
9117;SDS011;4594;50.994;7.126;2023-10-08T09:38:27;15.50;;;4.77;;
9117;SDS011;4594;50.994;7.126;2023-10-08T09:40:55;9.83;;;4.83;;
9117;SDS011;4594;50.994;7.126;2023-10-08T09:43:23;11.43;;;4.80;;
9117;SDS011;4594;50.994;7.126;2023-10-08T09:45:52;14.77;;;4.50;;
9117;SDS011;4594;50.994;7.126;2023-10-08T09:48:25;14.13;;;5.37;;
9117;SDS011;4594;50.994;7.126;2023-10-08T09:50:55;10.90;;;4.47;;
9117;SDS011;4594;50.994;7.126;2023-10-08T09:53:31;10.50;;;5.10;;
9117;SDS011;4594;50.994;7.126;2023-10-08T09:56:12;18.10;;;5.10;;
9117;SDS011;4594;50.994;7.126;2023-10-08T09:58:43;14.43;;;5.17;;
9117;SDS011;4594;50.994;7.126;2023-10-08T10:01:10;14.53;;;4.97;;
9117;SDS011;4594;50.994;7.126;2023-10-08T10:03:37;12.33;;;4.90;;
9117;SDS011;4594;50.994;7.126;2023-10-08T10:06:04;10.30;;;4.30;;
9117;SDS011;4594;50.994;7.126;2023-10-08T10:08:36;12.20;;;4.83;;
9117;SDS011;4594;50.994;7.126;2023-10-08T10:11:02;18.30;;;5.07;;
9117;SDS011;4594;50.994;7.126;2023-10-08T10:13:29;14.80;;;4.90;;
9117;SDS011;4594;50.994;7.126;2023-10-08T10:16:10;15.50;;;5.93;;
9117;SDS011;4594;50.994;7.126;2023-10-08T10:18:38;8.57;;;4.73;;
9117;SDS011;4594;50.994;7.126;2023-10-08T10:23:39;12.57;;;5.37;;
9117;SDS011;4594;50.994;7.126;2023-10-08T10:26:22;15.23;;;5.67;;
9117;SDS011;4594;50.994;7.126;2023-10-08T10:31:40;12.40;;;5.10;;
9117;SDS011;4594;50.994;7.126;2023-10-08T10:36:54;17.37;;;5.13;;
9117;SDS011;4594;50.994;7.126;2023-10-08T10:39:25;10.97;;;5.50;;
9117;SDS011;4594;50.994;7.126;2023-10-08T10:41:53;13.33;;;5.00;;
9117;SDS011;4594;50.994;7.126;2023-10-08T10:44:22;10.13;;;5.17;;
9117;SDS011;4594;50.994;7.126;2023-10-08T10:46:49;12.97;;;5.80;;
9117;SDS011;4594;50.994;7.126;2023-10-08T10:49:33;11.67;;;5.27;;
9117;SDS011;4594;50.994;7.126;2023-10-08T10:52:01;14.77;;;5.03;;
9117;SDS011;4594;50.994;7.126;2023-10-08T10:54:30;10.13;;;5.20;;
9117;SDS011;4594;50.994;7.126;2023-10-08T10:57:01;14.53;;;5.80;;
9117;SDS011;4594;50.994;7.126;2023-10-08T10:59:32;16.13;;;7.70;;
9117;SDS011;4594;50.994;7.126;2023-10-08T11:02:04;20.87;;;11.10;;
9117;SDS011;4594;50.994;7.126;2023-10-08T11:04:46;14.97;;;8.20;;
9117;SDS011;4594;50.994;7.126;2023-10-08T11:07:19;18.80;;;7.13;;
9117;SDS011;4594;50.994;7.126;2023-10-08T11:09:48;13.17;;;6.40;;
9117;SDS011;4594;50.994;7.126;2023-10-08T11:12:17;17.17;;;6.07;;
9117;SDS011;4594;50.994;7.126;2023-10-08T11:14:48;15.33;;;6.70;;
9117;SDS011;4594;50.994;7.126;2023-10-08T11:17:17;13.00;;;6.07;;
9117;SDS011;4594;50.994;7.126;2023-10-08T11:19:49;11.27;;;5.73;;
9117;SDS011;4594;50.994;7.126;2023-10-08T11:22:16;12.47;;;6.13;;
9117;SDS011;4594;50.994;7.126;2023-10-08T11:24:46;12.90;;;5.90;;
9117;SDS011;4594;50.994;7.126;2023-10-08T11:27:13;14.40;;;5.53;;
9117;SDS011;4594;50.994;7.126;2023-10-08T11:29:48;15.00;;;5.80;;
9117;SDS011;4594;50.994;7.126;2023-10-08T11:32:25;11.07;;;5.40;;
9117;SDS011;4594;50.994;7.126;2023-10-08T11:34:59;11.20;;;5.13;;
9117;SDS011;4594;50.994;7.126;2023-10-08T11:37:28;12.37;;;6.07;;
9117;SDS011;4594;50.994;7.126;2023-10-08T11:39:58;10.87;;;5.70;;
9117;SDS011;4594;50.994;7.126;2023-10-08T11:42:33;11.73;;;4.87;;
9117;SDS011;4594;50.994;7.126;2023-10-08T11:44:59;14.50;;;5.43;;
9117;SDS011;4594;50.994;7.126;2023-10-08T11:47:43;9.83;;;5.47;;
9117;SDS011;4594;50.994;7.126;2023-10-08T11:50:11;16.23;;;5.30;;
9117;SDS011;4594;50.994;7.126;2023-10-08T11:52:42;21.93;;;5.30;;
9117;SDS011;4594;50.994;7.126;2023-10-08T11:55:08;10.50;;;5.30;;
9117;SDS011;4594;50.994;7.126;2023-10-08T11:57:35;10.53;;;5.37;;
9117;SDS011;4594;50.994;7.126;2023-10-08T12:00:01;10.30;;;5.13;;
9117;SDS011;4594;50.994;7.126;2023-10-08T12:02:43;11.03;;;5.47;;
9117;SDS011;4594;50.994;7.126;2023-10-08T12:05:13;13.37;;;5.27;;
9117;SDS011;4594;50.994;7.126;2023-10-08T12:07:48;11.83;;;4.87;;
9117;SDS011;4594;50.994;7.126;2023-10-08T12:10:18;10.80;;;5.10;;
9117;SDS011;4594;50.994;7.126;2023-10-08T12:12:48;9.87;;;5.40;;
9117;SDS011;4594;50.994;7.126;2023-10-08T12:15:19;13.17;;;5.27;;
9117;SDS011;4594;50.994;7.126;2023-10-08T12:17:47;11.50;;;5.27;;
9117;SDS011;4594;50.994;7.126;2023-10-08T12:20:33;12.00;;;4.60;;
9117;SDS011;4594;50.994;7.126;2023-10-08T12:23:02;10.27;;;5.13;;
9117;SDS011;4594;50.994;7.126;2023-10-08T12:25:35;18.40;;;5.03;;
9117;SDS011;4594;50.994;7.126;2023-10-08T12:28:02;13.87;;;5.40;;
9117;SDS011;4594;50.994;7.126;2023-10-08T12:30:33;12.20;;;5.10;;
9117;SDS011;4594;50.994;7.126;2023-10-08T12:33:06;12.50;;;5.10;;
9117;SDS011;4594;50.994;7.126;2023-10-08T12:35:37;9.63;;;4.70;;
9117;SDS011;4594;50.994;7.126;2023-10-08T12:38:05;11.40;;;5.33;;
9117;SDS011;4594;50.994;7.126;2023-10-08T12:40:31;10.70;;;5.03;;
9117;SDS011;4594;50.994;7.126;2023-10-08T12:43:07;10.03;;;5.17;;
9117;SDS011;4594;50.994;7.126;2023-10-08T12:45:33;11.03;;;5.10;;
9117;SDS011;4594;50.994;7.126;2023-10-08T12:48:02;14.90;;;5.07;;
9117;SDS011;4594;50.994;7.126;2023-10-08T12:50:30;7.83;;;4.57;;
9117;SDS011;4594;50.994;7.126;2023-10-08T12:53:07;12.77;;;5.43;;
9117;SDS011;4594;50.994;7.126;2023-10-08T12:55:39;12.40;;;5.07;;
9117;SDS011;4594;50.994;7.126;2023-10-08T12:58:08;8.90;;;5.00;;
9117;SDS011;4594;50.994;7.126;2023-10-08T13:00:39;11.67;;;5.23;;
9117;SDS011;4594;50.994;7.126;2023-10-08T13:03:14;12.50;;;5.20;;
9117;SDS011;4594;50.994;7.126;2023-10-08T13:05:43;15.77;;;5.13;;
9117;SDS011;4594;50.994;7.126;2023-10-08T13:08:12;14.40;;;4.67;;
9117;SDS011;4594;50.994;7.126;2023-10-08T13:10:39;9.40;;;5.07;;
9117;SDS011;4594;50.994;7.126;2023-10-08T13:13:09;6.33;;;4.30;;
9117;SDS011;4594;50.994;7.126;2023-10-08T13:15:36;9.67;;;5.60;;
9117;SDS011;4594;50.994;7.126;2023-10-08T13:18:02;9.73;;;4.77;;
9117;SDS011;4594;50.994;7.126;2023-10-08T13:20:30;14.93;;;5.93;;
9117;SDS011;4594;50.994;7.126;2023-10-08T13:22:59;14.33;;;6.93;;
9117;SDS011;4594;50.994;7.126;2023-10-08T13:25:25;46.07;;;19.97;;
9117;SDS011;4594;50.994;7.126;2023-10-08T13:27:51;22.50;;;10.80;;
9117;SDS011;4594;50.994;7.126;2023-10-08T13:30:17;20.23;;;8.17;;
9117;SDS011;4594;50.994;7.126;2023-10-08T13:32:43;18.87;;;7.27;;
9117;SDS011;4594;50.994;7.126;2023-10-08T13:35:10;12.13;;;7.03;;
9117;SDS011;4594;50.994;7.126;2023-10-08T13:37:36;13.33;;;6.50;;
9117;SDS011;4594;50.994;7.126;2023-10-08T13:40:02;10.60;;;5.97;;
9117;SDS011;4594;50.994;7.126;2023-10-08T13:42:28;14.30;;;5.73;;
9117;SDS011;4594;50.994;7.126;2023-10-08T13:44:55;18.23;;;6.87;;
9117;SDS011;4594;50.994;7.126;2023-10-08T13:47:24;11.60;;;6.80;;
9117;SDS011;4594;50.994;7.126;2023-10-08T13:49:51;11.57;;;5.87;;
9117;SDS011;4594;50.994;7.126;2023-10-08T13:52:20;16.10;;;6.00;;
9117;SDS011;4594;50.994;7.126;2023-10-08T13:54:51;11.63;;;5.50;;
9117;SDS011;4594;50.994;7.126;2023-10-08T13:57:21;11.87;;;5.83;;
9117;SDS011;4594;50.994;7.126;2023-10-08T13:59:50;10.70;;;5.30;;
9117;SDS011;4594;50.994;7.126;2023-10-08T14:02:16;20.93;;;6.10;;
9117;SDS011;4594;50.994;7.126;2023-10-08T14:04:44;8.90;;;5.13;;
9117;SDS011;4594;50.994;7.126;2023-10-08T14:07:11;12.37;;;5.40;;
9117;SDS011;4594;50.994;7.126;2023-10-08T14:09:41;10.67;;;5.90;;
9117;SDS011;4594;50.994;7.126;2023-10-08T14:12:11;15.93;;;6.23;;
9117;SDS011;4594;50.994;7.126;2023-10-08T14:14:39;15.77;;;6.13;;
9117;SDS011;4594;50.994;7.126;2023-10-08T14:17:09;11.40;;;5.93;;
9117;SDS011;4594;50.994;7.126;2023-10-08T14:19:39;13.07;;;5.93;;
9117;SDS011;4594;50.994;7.126;2023-10-08T14:22:17;13.17;;;5.67;;
9117;SDS011;4594;50.994;7.126;2023-10-08T14:24:46;17.07;;;6.00;;
9117;SDS011;4594;50.994;7.126;2023-10-08T14:27:23;9.40;;;5.43;;
9117;SDS011;4594;50.994;7.126;2023-10-08T14:29:57;9.70;;;5.57;;
9117;SDS011;4594;50.994;7.126;2023-10-08T14:32:26;16.40;;;7.07;;
9117;SDS011;4594;50.994;7.126;2023-10-08T14:34:53;17.57;;;8.83;;
9117;SDS011;4594;50.994;7.126;2023-10-08T14:37:19;20.17;;;7.03;;
9117;SDS011;4594;50.994;7.126;2023-10-08T14:40:04;11.67;;;6.23;;
9117;SDS011;4594;50.994;7.126;2023-10-08T14:42:49;12.47;;;6.03;;
9117;SDS011;4594;50.994;7.126;2023-10-08T14:45:30;19.40;;;6.93;;
9117;SDS011;4594;50.994;7.126;2023-10-08T14:48:04;15.87;;;7.30;;
9117;SDS011;4594;50.994;7.126;2023-10-08T14:50:36;15.30;;;7.37;;
9117;SDS011;4594;50.994;7.126;2023-10-08T14:53:03;15.07;;;7.00;;
9117;SDS011;4594;50.994;7.126;2023-10-08T14:55:30;12.07;;;6.10;;
9117;SDS011;4594;50.994;7.126;2023-10-08T14:58:02;12.53;;;5.90;;
9117;SDS011;4594;50.994;7.126;2023-10-08T15:03:04;14.13;;;6.00;;
9117;SDS011;4594;50.994;7.126;2023-10-08T15:05:30;10.70;;;6.00;;
9117;SDS011;4594;50.994;7.126;2023-10-08T15:07:56;10.37;;;5.50;;
9117;SDS011;4594;50.994;7.126;2023-10-08T15:10:22;19.40;;;6.23;;
9117;SDS011;4594;50.994;7.126;2023-10-08T15:12:48;11.43;;;5.80;;
9117;SDS011;4594;50.994;7.126;2023-10-08T15:15:17;15.87;;;6.20;;
9117;SDS011;4594;50.994;7.126;2023-10-08T15:17:43;14.93;;;5.93;;
9117;SDS011;4594;50.994;7.126;2023-10-08T15:20:14;12.33;;;5.93;;
9117;SDS011;4594;50.994;7.126;2023-10-08T15:22:44;9.33;;;5.17;;
9117;SDS011;4594;50.994;7.126;2023-10-08T15:25:12;9.60;;;5.50;;
9117;SDS011;4594;50.994;7.126;2023-10-08T15:27:43;14.93;;;5.97;;
9117;SDS011;4594;50.994;7.126;2023-10-08T15:30:12;14.27;;;5.87;;
9117;SDS011;4594;50.994;7.126;2023-10-08T15:32:47;16.30;;;5.97;;
9117;SDS011;4594;50.994;7.126;2023-10-08T15:35:15;12.80;;;6.03;;
9117;SDS011;4594;50.994;7.126;2023-10-08T15:37:48;16.33;;;6.30;;
9117;SDS011;4594;50.994;7.126;2023-10-08T15:40:14;16.37;;;6.20;;
9117;SDS011;4594;50.994;7.126;2023-10-08T15:42:44;12.30;;;6.17;;
9117;SDS011;4594;50.994;7.126;2023-10-08T15:45:16;15.10;;;5.63;;
9117;SDS011;4594;50.994;7.126;2023-10-08T15:47:43;12.30;;;6.00;;
9117;SDS011;4594;50.994;7.126;2023-10-08T15:50:09;11.27;;;6.03;;